sensor_id;sensor_type;location;lat;lon;timestamp;P1;durP1;ratioP1;P2;durP2;ratioP2
50002;SDS011;35889;51.442;6.408;2022-08-21T00:00:26;0.70;;;0.70;;
50002;SDS011;35889;51.442;6.408;2022-08-21T00:02:59;0.60;;;0.60;;
50002;SDS011;35889;51.442;6.408;2022-08-21T00:05:27;0.70;;;0.70;;
50002;SDS011;35889;51.442;6.408;2022-08-21T00:07:54;0.70;;;0.70;;
50002;SDS011;35889;51.442;6.408;2022-08-21T00:10:20;0.68;;;0.68;;
50002;SDS011;35889;51.442;6.408;2022-08-21T00:12:46;0.68;;;0.68;;
50002;SDS011;35889;51.442;6.408;2022-08-21T00:15:13;0.70;;;0.70;;
50002;SDS011;35889;51.442;6.408;2022-08-21T00:17:40;0.70;;;0.70;;
50002;SDS011;35889;51.442;6.408;2022-08-21T00:20:08;0.60;;;0.60;;
50002;SDS011;35889;51.442;6.408;2022-08-21T00:22:34;0.70;;;0.70;;
50002;SDS011;35889;51.442;6.408;2022-08-21T00:25:01;0.70;;;0.70;;
50002;SDS011;35889;51.442;6.408;2022-08-21T00:27:27;0.60;;;0.60;;
50002;SDS011;35889;51.442;6.408;2022-08-21T00:29:53;0.70;;;0.70;;
50002;SDS011;35889;51.442;6.408;2022-08-21T00:32:23;0.70;;;0.70;;
50002;SDS011;35889;51.442;6.408;2022-08-21T00:34:50;0.63;;;0.63;;
50002;SDS011;35889;51.442;6.408;2022-08-21T00:37:16;0.65;;;0.65;;
50002;SDS011;35889;51.442;6.408;2022-08-21T00:39:41;0.70;;;0.70;;
50002;SDS011;35889;51.442;6.408;2022-08-21T00:42:07;0.60;;;0.60;;
50002;SDS011;35889;51.442;6.408;2022-08-21T00:44:32;0.70;;;0.70;;
50002;SDS011;35889;51.442;6.408;2022-08-21T00:46:58;0.70;;;0.70;;
50002;SDS011;35889;51.442;6.408;2022-08-21T00:49:23;0.63;;;0.63;;
50002;SDS011;35889;51.442;6.408;2022-08-21T00:51:50;0.70;;;0.70;;
50002;SDS011;35889;51.442;6.408;2022-08-21T00:54:20;0.70;;;0.70;;
50002;SDS011;35889;51.442;6.408;2022-08-21T00:56:48;0.60;;;0.60;;
50002;SDS011;35889;51.442;6.408;2022-08-21T00:59:16;0.60;;;0.60;;
50002;SDS011;35889;51.442;6.408;2022-08-21T01:01:42;0.60;;;0.60;;
50002;SDS011;35889;51.442;6.408;2022-08-21T01:04:08;0.70;;;0.70;;
50002;SDS011;35889;51.442;6.408;2022-08-21T01:06:33;0.70;;;0.70;;
50002;SDS011;35889;51.442;6.408;2022-08-21T01:09:00;0.60;;;0.60;;
50002;SDS011;35889;51.442;6.408;2022-08-21T01:11:25;0.60;;;0.60;;
50002;SDS011;35889;51.442;6.408;2022-08-21T01:13:51;0.60;;;0.60;;
50002;SDS011;35889;51.442;6.408;2022-08-21T01:16:17;0.60;;;0.60;;
50002;SDS011;35889;51.442;6.408;2022-08-21T01:18:44;0.60;;;0.60;;
50002;SDS011;35889;51.442;6.408;2022-08-21T01:21:14;0.60;;;0.60;;
50002;SDS011;35889;51.442;6.408;2022-08-21T01:23:44;0.60;;;0.60;;
50002;SDS011;35889;51.442;6.408;2022-08-21T01:26:12;0.60;;;0.60;;
50002;SDS011;35889;51.442;6.408;2022-08-21T01:28:42;0.60;;;0.60;;
50002;SDS011;35889;51.442;6.408;2022-08-21T01:33:36;0.68;;;0.68;;
50002;SDS011;35889;51.442;6.408;2022-08-21T01:36:02;0.60;;;0.60;;
50002;SDS011;35889;51.442;6.408;2022-08-21T01:38:28;0.60;;;0.60;;
50002;SDS011;35889;51.442;6.408;2022-08-21T01:40:53;0.68;;;0.68;;
50002;SDS011;35889;51.442;6.408;2022-08-21T01:43:19;0.60;;;0.60;;
50002;SDS011;35889;51.442;6.408;2022-08-21T01:45:44;0.63;;;0.63;;
50002;SDS011;35889;51.442;6.408;2022-08-21T01:48:10;0.60;;;0.60;;
50002;SDS011;35889;51.442;6.408;2022-08-21T01:50:35;0.60;;;0.60;;
50002;SDS011;35889;51.442;6.408;2022-08-21T01:53:02;0.70;;;0.70;;
50002;SDS011;35889;51.442;6.408;2022-08-21T01:55:28;0.60;;;0.60;;
50002;SDS011;35889;51.442;6.408;2022-08-21T01:57:53;0.68;;;0.68;;
50002;SDS011;35889;51.442;6.408;2022-08-21T02:00:20;0.60;;;0.60;;
50002;SDS011;35889;51.442;6.408;2022-08-21T02:02:50;0.60;;;0.60;;
50002;SDS011;35889;51.442;6.408;2022-08-21T02:05:16;0.70;;;0.70;;
50002;SDS011;35889;51.442;6.408;2022-08-21T02:07:43;0.60;;;0.60;;
50002;SDS011;35889;51.442;6.408;2022-08-21T02:10:12;0.60;;;0.60;;
50002;SDS011;35889;51.442;6.408;2022-08-21T02:12:39;0.70;;;0.70;;
50002;SDS011;35889;51.442;6.408;2022-08-21T02:15:05;0.70;;;0.70;;
50002;SDS011;35889;51.442;6.408;2022-08-21T02:17:47;0.70;;;0.70;;
50002;SDS011;35889;51.442;6.408;2022-08-21T02:20:24;0.60;;;0.60;;
50002;SDS011;35889;51.442;6.408;2022-08-21T02:22:52;0.60;;;0.60;;
50002;SDS011;35889;51.442;6.408;2022-08-21T02:25:18;0.60;;;0.60;;
50002;SDS011;35889;51.442;6.408;2022-08-21T02:27:45;0.60;;;0.60;;
50002;SDS011;35889;51.442;6.408;2022-08-21T02:30:13;0.68;;;0.68;;
50002;SDS011;35889;51.442;6.408;2022-08-21T02:32:41;0.63;;;0.63;;
50002;SDS011;35889;51.442;6.408;2022-08-21T02:35:07;0.60;;;0.60;;
50002;SDS011;35889;51.442;6.408;2022-08-21T02:37:34;0.60;;;0.60;;
50002;SDS011;35889;51.442;6.408;2022-08-21T02:40:07;0.60;;;0.60;;
50002;SDS011;35889;51.442;6.408;2022-08-21T02:42:36;0.60;;;0.60;;
50002;SDS011;35889;51.442;6.408;2022-08-21T02:45:02;0.60;;;0.60;;
50002;SDS011;35889;51.442;6.408;2022-08-21T02:47:28;0.60;;;0.60;;
50002;SDS011;35889;51.442;6.408;2022-08-21T02:49:53;0.60;;;0.60;;
50002;SDS011;35889;51.442;6.408;2022-08-21T02:52:19;0.60;;;0.60;;
50002;SDS011;35889;51.442;6.408;2022-08-21T02:54:44;0.60;;;0.60;;
50002;SDS011;35889;51.442;6.408;2022-08-21T02:57:10;0.60;;;0.60;;
50002;SDS011;35889;51.442;6.408;2022-08-21T02:59:35;0.60;;;0.60;;
50002;SDS011;35889;51.442;6.408;2022-08-21T03:02:01;0.60;;;0.60;;
50002;SDS011;35889;51.442;6.408;2022-08-21T03:04:27;0.60;;;0.60;;
50002;SDS011;35889;51.442;6.408;2022-08-21T03:06:52;0.60;;;0.60;;
50002;SDS011;35889;51.442;6.408;2022-08-21T03:09:18;0.60;;;0.60;;
50002;SDS011;35889;51.442;6.408;2022-08-21T03:11:43;0.60;;;0.60;;
50002;SDS011;35889;51.442;6.408;2022-08-21T03:14:09;0.60;;;0.60;;
50002;SDS011;35889;51.442;6.408;2022-08-21T03:16:34;0.60;;;0.60;;
50002;SDS011;35889;51.442;6.408;2022-08-21T03:19:00;0.60;;;0.60;;
50002;SDS011;35889;51.442;6.408;2022-08-21T03:21:25;0.60;;;0.60;;
50002;SDS011;35889;51.442;6.408;2022-08-21T03:23:51;0.63;;;0.63;;
50002;SDS011;35889;51.442;6.408;2022-08-21T03:26:16;0.60;;;0.60;;
50002;SDS011;35889;51.442;6.408;2022-08-21T03:28:42;0.60;;;0.60;;
50002;SDS011;35889;51.442;6.408;2022-08-21T03:31:08;0.60;;;0.60;;
50002;SDS011;35889;51.442;6.408;2022-08-21T03:33:33;0.60;;;0.60;;
50002;SDS011;35889;51.442;6.408;2022-08-21T03:36:08;0.60;;;0.60;;
50002;SDS011;35889;51.442;6.408;2022-08-21T03:38:34;0.50;;;0.50;;
50002;SDS011;35889;51.442;6.408;2022-08-21T03:41:00;0.60;;;0.60;;
50002;SDS011;35889;51.442;6.408;2022-08-21T03:43:26;0.60;;;0.60;;
50002;SDS011;35889;51.442;6.408;2022-08-21T03:45:52;0.57;;;0.57;;
50002;SDS011;35889;51.442;6.408;2022-08-21T03:48:18;0.60;;;0.60;;
50002;SDS011;35889;51.442;6.408;2022-08-21T03:50:44;0.60;;;0.60;;
50002;SDS011;35889;51.442;6.408;2022-08-21T03:53:12;0.60;;;0.60;;
50002;SDS011;35889;51.442;6.408;2022-08-21T03:55:38;0.60;;;0.60;;
50002;SDS011;35889;51.442;6.408;2022-08-21T03:58:04;0.60;;;0.60;;
50002;SDS011;35889;51.442;6.408;2022-08-21T04:00:30;0.60;;;0.60;;
50002;SDS011;35889;51.442;6.408;2022-08-21T04:02:55;0.60;;;0.60;;
50002;SDS011;35889;51.442;6.408;2022-08-21T04:05:21;0.60;;;0.60;;
50002;SDS011;35889;51.442;6.408;2022-08-21T04:07:58;0.60;;;0.60;;
50002;SDS011;35889;51.442;6.408;2022-08-21T04:10:25;0.50;;;0.50;;
50002;SDS011;35889;51.442;6.408;2022-08-21T04:12:52;0.60;;;0.60;;
50002;SDS011;35889;51.442;6.408;2022-08-21T04:15:17;0.60;;;0.60;;
50002;SDS011;35889;51.442;6.408;2022-08-21T04:17:43;0.60;;;0.60;;
50002;SDS011;35889;51.442;6.408;2022-08-21T04:20:08;0.60;;;0.60;;
50002;SDS011;35889;51.442;6.408;2022-08-21T04:22:34;0.60;;;0.60;;
50002;SDS011;35889;51.442;6.408;2022-08-21T04:24:59;0.60;;;0.60;;
50002;SDS011;35889;51.442;6.408;2022-08-21T04:27:25;0.60;;;0.60;;
50002;SDS011;35889;51.442;6.408;2022-08-21T04:29:50;0.60;;;0.60;;
50002;SDS011;35889;51.442;6.408;2022-08-21T04:32:22;0.60;;;0.60;;
50002;SDS011;35889;51.442;6.408;2022-08-21T04:34:49;0.60;;;0.60;;
50002;SDS011;35889;51.442;6.408;2022-08-21T04:37:14;0.65;;;0.65;;
50002;SDS011;35889;51.442;6.408;2022-08-21T04:39:40;0.60;;;0.60;;
50002;SDS011;35889;51.442;6.408;2022-08-21T04:42:06;0.60;;;0.60;;
50002;SDS011;35889;51.442;6.408;2022-08-21T04:44:32;0.70;;;0.70;;
50002;SDS011;35889;51.442;6.408;2022-08-21T04:46:58;0.60;;;0.60;;
50002;SDS011;35889;51.442;6.408;2022-08-21T04:49:23;0.60;;;0.60;;
50002;SDS011;35889;51.442;6.408;2022-08-21T04:52:01;0.60;;;0.60;;
50002;SDS011;35889;51.442;6.408;2022-08-21T04:54:27;0.70;;;0.70;;
50002;SDS011;35889;51.442;6.408;2022-08-21T04:56:56;0.60;;;0.60;;
50002;SDS011;35889;51.442;6.408;2022-08-21T04:59:33;0.60;;;0.60;;
50002;SDS011;35889;51.442;6.408;2022-08-21T05:02:01;0.60;;;0.60;;
50002;SDS011;35889;51.442;6.408;2022-08-21T05:04:29;0.68;;;0.68;;
50002;SDS011;35889;51.442;6.408;2022-08-21T05:06:56;0.70;;;0.70;;
50002;SDS011;35889;51.442;6.408;2022-08-21T05:09:23;0.70;;;0.70;;
50002;SDS011;35889;51.442;6.408;2022-08-21T05:11:49;0.60;;;0.60;;
50002;SDS011;35889;51.442;6.408;2022-08-21T05:14:16;0.70;;;0.70;;
50002;SDS011;35889;51.442;6.408;2022-08-21T05:16:42;0.60;;;0.60;;
50002;SDS011;35889;51.442;6.408;2022-08-21T05:19:08;0.70;;;0.70;;
50002;SDS011;35889;51.442;6.408;2022-08-21T05:21:35;0.60;;;0.60;;
50002;SDS011;35889;51.442;6.408;2022-08-21T05:24:01;0.60;;;0.60;;
50002;SDS011;35889;51.442;6.408;2022-08-21T05:26:27;0.60;;;0.60;;
50002;SDS011;35889;51.442;6.408;2022-08-21T05:28:52;0.70;;;0.70;;
50002;SDS011;35889;51.442;6.408;2022-08-21T05:31:18;0.60;;;0.60;;
50002;SDS011;35889;51.442;6.408;2022-08-21T05:33:43;0.70;;;0.70;;
50002;SDS011;35889;51.442;6.408;2022-08-21T05:36:09;0.60;;;0.60;;
50002;SDS011;35889;51.442;6.408;2022-08-21T05:38:34;0.60;;;0.60;;
50002;SDS011;35889;51.442;6.408;2022-08-21T05:41:00;0.70;;;0.70;;
50002;SDS011;35889;51.442;6.408;2022-08-21T05:43:25;0.65;;;0.65;;
50002;SDS011;35889;51.442;6.408;2022-08-21T05:45:51;0.60;;;0.60;;
50002;SDS011;35889;51.442;6.408;2022-08-21T05:48:17;0.60;;;0.60;;
50002;SDS011;35889;51.442;6.408;2022-08-21T05:50:47;0.60;;;0.60;;
50002;SDS011;35889;51.442;6.408;2022-08-21T05:53:15;0.60;;;0.60;;
50002;SDS011;35889;51.442;6.408;2022-08-21T05:55:42;0.60;;;0.60;;
50002;SDS011;35889;51.442;6.408;2022-08-21T05:58:07;0.60;;;0.60;;
50002;SDS011;35889;51.442;6.408;2022-08-21T06:00:33;0.60;;;0.60;;
50002;SDS011;35889;51.442;6.408;2022-08-21T06:02:58;0.60;;;0.60;;
50002;SDS011;35889;51.442;6.408;2022-08-21T06:05:25;0.63;;;0.63;;
50002;SDS011;35889;51.442;6.408;2022-08-21T06:07:50;0.65;;;0.65;;
50002;SDS011;35889;51.442;6.408;2022-08-21T06:10:16;0.60;;;0.60;;
50002;SDS011;35889;51.442;6.408;2022-08-21T06:12:41;0.70;;;0.70;;
50002;SDS011;35889;51.442;6.408;2022-08-21T06:15:07;0.70;;;0.70;;
50002;SDS011;35889;51.442;6.408;2022-08-21T06:17:33;0.70;;;0.70;;
50002;SDS011;35889;51.442;6.408;2022-08-21T06:19:58;0.70;;;0.70;;
50002;SDS011;35889;51.442;6.408;2022-08-21T06:22:23;0.60;;;0.60;;
50002;SDS011;35889;51.442;6.408;2022-08-21T06:24:49;0.70;;;0.70;;
50002;SDS011;35889;51.442;6.408;2022-08-21T06:27:14;0.63;;;0.63;;
50002;SDS011;35889;51.442;6.408;2022-08-21T06:29:40;0.68;;;0.68;;
50002;SDS011;35889;51.442;6.408;2022-08-21T06:32:06;0.60;;;0.60;;
50002;SDS011;35889;51.442;6.408;2022-08-21T06:34:35;0.70;;;0.70;;
50002;SDS011;35889;51.442;6.408;2022-08-21T06:37:03;0.60;;;0.60;;
50002;SDS011;35889;51.442;6.408;2022-08-21T06:39:28;0.70;;;0.70;;
50002;SDS011;35889;51.442;6.408;2022-08-21T06:41:54;0.70;;;0.70;;
50002;SDS011;35889;51.442;6.408;2022-08-21T06:44:27;0.70;;;0.70;;
50002;SDS011;35889;51.442;6.408;2022-08-21T06:46:52;0.70;;;0.70;;
50002;SDS011;35889;51.442;6.408;2022-08-21T06:49:17;0.68;;;0.68;;
50002;SDS011;35889;51.442;6.408;2022-08-21T06:51:43;0.60;;;0.60;;
50002;SDS011;35889;51.442;6.408;2022-08-21T06:54:08;0.70;;;0.70;;
50002;SDS011;35889;51.442;6.408;2022-08-21T06:56:34;0.63;;;0.63;;
50002;SDS011;35889;51.442;6.408;2022-08-21T06:59:02;0.70;;;0.70;;
50002;SDS011;35889;51.442;6.408;2022-08-21T07:01:27;0.60;;;0.60;;
50002;SDS011;35889;51.442;6.408;2022-08-21T07:03:53;0.70;;;0.70;;
50002;SDS011;35889;51.442;6.408;2022-08-21T07:06:18;0.70;;;0.70;;
50002;SDS011;35889;51.442;6.408;2022-08-21T07:08:44;0.70;;;0.70;;
50002;SDS011;35889;51.442;6.408;2022-08-21T07:11:14;0.63;;;0.63;;
50002;SDS011;35889;51.442;6.408;2022-08-21T07:13:43;0.70;;;0.70;;
50002;SDS011;35889;51.442;6.408;2022-08-21T07:16:08;0.60;;;0.60;;
50002;SDS011;35889;51.442;6.408;2022-08-21T07:18:34;0.60;;;0.60;;
50002;SDS011;35889;51.442;6.408;2022-08-21T07:21:00;0.60;;;0.60;;
50002;SDS011;35889;51.442;6.408;2022-08-21T07:23:28;0.65;;;0.65;;
50002;SDS011;35889;51.442;6.408;2022-08-21T07:25:55;0.70;;;0.70;;
50002;SDS011;35889;51.442;6.408;2022-08-21T07:28:21;0.70;;;0.70;;
50002;SDS011;35889;51.442;6.408;2022-08-21T07:30:50;0.60;;;0.60;;
50002;SDS011;35889;51.442;6.408;2022-08-21T07:33:16;0.70;;;0.70;;
50002;SDS011;35889;51.442;6.408;2022-08-21T07:35:41;0.70;;;0.70;;
50002;SDS011;35889;51.442;6.408;2022-08-21T07:38:07;0.60;;;0.60;;
50002;SDS011;35889;51.442;6.408;2022-08-21T07:40:32;0.70;;;0.70;;
50002;SDS011;35889;51.442;6.408;2022-08-21T07:42:58;0.70;;;0.70;;
50002;SDS011;35889;51.442;6.408;2022-08-21T07:45:23;0.70;;;0.70;;
50002;SDS011;35889;51.442;6.408;2022-08-21T07:47:51;0.68;;;0.68;;
50002;SDS011;35889;51.442;6.408;2022-08-21T07:50:17;0.70;;;0.70;;
50002;SDS011;35889;51.442;6.408;2022-08-21T07:52:43;0.70;;;0.70;;
50002;SDS011;35889;51.442;6.408;2022-08-21T07:55:10;0.70;;;0.70;;
50002;SDS011;35889;51.442;6.408;2022-08-21T07:57:36;0.70;;;0.70;;
50002;SDS011;35889;51.442;6.408;2022-08-21T08:00:13;0.70;;;0.70;;
50002;SDS011;35889;51.442;6.408;2022-08-21T08:02:44;0.70;;;0.70;;
50002;SDS011;35889;51.442;6.408;2022-08-21T08:05:12;0.70;;;0.70;;
50002;SDS011;35889;51.442;6.408;2022-08-21T08:07:38;0.70;;;0.70;;
50002;SDS011;35889;51.442;6.408;2022-08-21T08:10:04;0.63;;;0.63;;
50002;SDS011;35889;51.442;6.408;2022-08-21T08:12:32;0.60;;;0.60;;
50002;SDS011;35889;51.442;6.408;2022-08-21T08:14:59;0.70;;;0.70;;
50002;SDS011;35889;51.442;6.408;2022-08-21T08:17:25;0.70;;;0.70;;
50002;SDS011;35889;51.442;6.408;2022-08-21T08:19:51;0.70;;;0.70;;
50002;SDS011;35889;51.442;6.408;2022-08-21T08:22:18;0.80;;;0.80;;
50002;SDS011;35889;51.442;6.408;2022-08-21T08:24:45;0.70;;;0.70;;
50002;SDS011;35889;51.442;6.408;2022-08-21T08:27:11;0.70;;;0.70;;
50002;SDS011;35889;51.442;6.408;2022-08-21T08:29:36;0.70;;;0.70;;
50002;SDS011;35889;51.442;6.408;2022-08-21T08:32:03;0.70;;;0.70;;
50002;SDS011;35889;51.442;6.408;2022-08-21T08:34:29;0.70;;;0.70;;
50002;SDS011;35889;51.442;6.408;2022-08-21T08:36:55;0.70;;;0.70;;
50002;SDS011;35889;51.442;6.408;2022-08-21T08:39:23;0.70;;;0.70;;
50002;SDS011;35889;51.442;6.408;2022-08-21T08:41:48;0.60;;;0.60;;
50002;SDS011;35889;51.442;6.408;2022-08-21T08:44:16;0.60;;;0.60;;
50002;SDS011;35889;51.442;6.408;2022-08-21T08:46:44;0.70;;;0.70;;
50002;SDS011;35889;51.442;6.408;2022-08-21T08:51:56;0.70;;;0.70;;
50002;SDS011;35889;51.442;6.408;2022-08-21T08:54:31;0.70;;;0.70;;
50002;SDS011;35889;51.442;6.408;2022-08-21T08:57:01;0.73;;;0.73;;
50002;SDS011;35889;51.442;6.408;2022-08-21T08:59:29;0.70;;;0.70;;
50002;SDS011;35889;51.442;6.408;2022-08-21T09:02:05;0.63;;;0.63;;
50002;SDS011;35889;51.442;6.408;2022-08-21T09:04:33;0.77;;;0.77;;
50002;SDS011;35889;51.442;6.408;2022-08-21T09:09:44;0.70;;;0.70;;
50002;SDS011;35889;51.442;6.408;2022-08-21T09:12:29;0.70;;;0.70;;
50002;SDS011;35889;51.442;6.408;2022-08-21T09:21:08;0.70;;;0.70;;
50002;SDS011;35889;51.442;6.408;2022-08-21T09:23:38;0.80;;;0.80;;
50002;SDS011;35889;51.442;6.408;2022-08-21T09:26:06;0.80;;;0.80;;
50002;SDS011;35889;51.442;6.408;2022-08-21T09:28:36;0.80;;;0.80;;
50002;SDS011;35889;51.442;6.408;2022-08-21T09:31:06;0.80;;;0.80;;
50002;SDS011;35889;51.442;6.408;2022-08-21T09:33:33;0.70;;;0.70;;
50002;SDS011;35889;51.442;6.408;2022-08-21T09:35:58;0.70;;;0.70;;
50002;SDS011;35889;51.442;6.408;2022-08-21T09:38:25;0.80;;;0.80;;
50002;SDS011;35889;51.442;6.408;2022-08-21T09:40:56;0.70;;;0.70;;
50002;SDS011;35889;51.442;6.408;2022-08-21T09:43:23;0.80;;;0.80;;
50002;SDS011;35889;51.442;6.408;2022-08-21T09:48:48;0.80;;;0.80;;
50002;SDS011;35889;51.442;6.408;2022-08-21T09:51:25;0.80;;;0.80;;
50002;SDS011;35889;51.442;6.408;2022-08-21T09:53:57;0.80;;;0.80;;
50002;SDS011;35889;51.442;6.408;2022-08-21T09:56:35;0.70;;;0.70;;
50002;SDS011;35889;51.442;6.408;2022-08-21T09:59:26;0.80;;;0.80;;
50002;SDS011;35889;51.442;6.408;2022-08-21T10:01:57;0.80;;;0.80;;
50002;SDS011;35889;51.442;6.408;2022-08-21T10:04:30;0.80;;;0.80;;
50002;SDS011;35889;51.442;6.408;2022-08-21T10:09:33;0.80;;;0.80;;
50002;SDS011;35889;51.442;6.408;2022-08-21T10:12:06;0.80;;;0.80;;
50002;SDS011;35889;51.442;6.408;2022-08-21T10:14:49;0.70;;;0.70;;
50002;SDS011;35889;51.442;6.408;2022-08-21T10:20:23;0.77;;;0.77;;
50002;SDS011;35889;51.442;6.408;2022-08-21T10:23:02;0.70;;;0.70;;
50002;SDS011;35889;51.442;6.408;2022-08-21T10:25:51;0.70;;;0.70;;
50002;SDS011;35889;51.442;6.408;2022-08-21T10:28:24;0.73;;;0.73;;
50002;SDS011;35889;51.442;6.408;2022-08-21T10:31:02;0.80;;;0.80;;
50002;SDS011;35889;51.442;6.408;2022-08-21T10:33:42;0.80;;;0.80;;
50002;SDS011;35889;51.442;6.408;2022-08-21T10:36:19;0.80;;;0.80;;
50002;SDS011;35889;51.442;6.408;2022-08-21T10:41:43;0.75;;;0.75;;
50002;SDS011;35889;51.442;6.408;2022-08-21T10:44:20;0.70;;;0.70;;
50002;SDS011;35889;51.442;6.408;2022-08-21T10:47:00;0.70;;;0.70;;
50002;SDS011;35889;51.442;6.408;2022-08-21T10:49:39;0.80;;;0.80;;
50002;SDS011;35889;51.442;6.408;2022-08-21T10:55:12;0.80;;;0.80;;
50002;SDS011;35889;51.442;6.408;2022-08-21T11:00:20;0.82;;;0.82;;
50002;SDS011;35889;51.442;6.408;2022-08-21T11:03:07;0.80;;;0.80;;
50002;SDS011;35889;51.442;6.408;2022-08-21T11:05:42;0.70;;;0.70;;
50002;SDS011;35889;51.442;6.408;2022-08-21T11:08:21;0.70;;;0.70;;
50002;SDS011;35889;51.442;6.408;2022-08-21T11:10:50;0.70;;;0.70;;
50002;SDS011;35889;51.442;6.408;2022-08-21T11:16:00;0.80;;;0.80;;
50002;SDS011;35889;51.442;6.408;2022-08-21T11:18:44;0.80;;;0.80;;
50002;SDS011;35889;51.442;6.408;2022-08-21T11:23:59;0.80;;;0.80;;
50002;SDS011;35889;51.442;6.408;2022-08-21T11:29:24;0.70;;;0.70;;
50002;SDS011;35889;51.442;6.408;2022-08-21T11:31:57;0.80;;;0.80;;
50002;SDS011;35889;51.442;6.408;2022-08-21T11:34:38;0.80;;;0.80;;
50002;SDS011;35889;51.442;6.408;2022-08-21T11:40:00;0.80;;;0.80;;
50002;SDS011;35889;51.442;6.408;2022-08-21T11:42:32;0.80;;;0.80;;
50002;SDS011;35889;51.442;6.408;2022-08-21T11:53:01;0.80;;;0.80;;
50002;SDS011;35889;51.442;6.408;2022-08-21T11:55:35;0.70;;;0.70;;
50002;SDS011;35889;51.442;6.408;2022-08-21T11:58:06;0.80;;;0.80;;
50002;SDS011;35889;51.442;6.408;2022-08-21T12:00:44;0.90;;;0.90;;
50002;SDS011;35889;51.442;6.408;2022-08-21T12:03:16;0.90;;;0.90;;
50002;SDS011;35889;51.442;6.408;2022-08-21T12:06:02;0.70;;;0.70;;
50002;SDS011;35889;51.442;6.408;2022-08-21T12:19:02;0.80;;;0.80;;
50002;SDS011;35889;51.442;6.408;2022-08-21T12:21:32;0.80;;;0.80;;
50002;SDS011;35889;51.442;6.408;2022-08-21T12:31:33;0.80;;;0.80;;
50002;SDS011;35889;51.442;6.408;2022-08-21T12:33:59;0.80;;;0.80;;
50002;SDS011;35889;51.442;6.408;2022-08-21T12:36:38;0.80;;;0.80;;
50002;SDS011;35889;51.442;6.408;2022-08-21T12:39:11;0.80;;;0.80;;
50002;SDS011;35889;51.442;6.408;2022-08-21T12:44:12;0.80;;;0.80;;
50002;SDS011;35889;51.442;6.408;2022-08-21T12:46:46;0.80;;;0.80;;
50002;SDS011;35889;51.442;6.408;2022-08-21T12:49:34;0.80;;;0.80;;
50002;SDS011;35889;51.442;6.408;2022-08-21T12:52:12;0.70;;;0.70;;
50002;SDS011;35889;51.442;6.408;2022-08-21T12:54:45;0.80;;;0.80;;
50002;SDS011;35889;51.442;6.408;2022-08-21T12:57:44;0.70;;;0.70;;
50002;SDS011;35889;51.442;6.408;2022-08-21T13:00:06;0.70;;;0.70;;
50002;SDS011;35889;51.442;6.408;2022-08-21T13:02:38;0.73;;;0.73;;
50002;SDS011;35889;51.442;6.408;2022-08-21T13:05:07;0.70;;;0.70;;
50002;SDS011;35889;51.442;6.408;2022-08-21T13:07:37;0.80;;;0.80;;
50002;SDS011;35889;51.442;6.408;2022-08-21T13:12:32;0.70;;;0.70;;
50002;SDS011;35889;51.442;6.408;2022-08-21T13:15:00;0.80;;;0.80;;
50002;SDS011;35889;51.442;6.408;2022-08-21T13:17:30;0.77;;;0.77;;
50002;SDS011;35889;51.442;6.408;2022-08-21T13:20:01;0.73;;;0.73;;
50002;SDS011;35889;51.442;6.408;2022-08-21T13:22:30;0.80;;;0.80;;
50002;SDS011;35889;51.442;6.408;2022-08-21T13:24:56;0.75;;;0.75;;
50002;SDS011;35889;51.442;6.408;2022-08-21T13:27:24;0.80;;;0.80;;
50002;SDS011;35889;51.442;6.408;2022-08-21T13:30:00;0.70;;;0.70;;
50002;SDS011;35889;51.442;6.408;2022-08-21T13:32:33;0.80;;;0.80;;
50002;SDS011;35889;51.442;6.408;2022-08-21T13:35:07;0.70;;;0.70;;
50002;SDS011;35889;51.442;6.408;2022-08-21T13:37:34;0.70;;;0.70;;
50002;SDS011;35889;51.442;6.408;2022-08-21T13:40:00;0.70;;;0.70;;
50002;SDS011;35889;51.442;6.408;2022-08-21T13:42:26;0.70;;;0.70;;
50002;SDS011;35889;51.442;6.408;2022-08-21T13:44:51;0.70;;;0.70;;
50002;SDS011;35889;51.442;6.408;2022-08-21T13:47:18;0.80;;;0.80;;
50002;SDS011;35889;51.442;6.408;2022-08-21T13:49:47;0.70;;;0.70;;
50002;SDS011;35889;51.442;6.408;2022-08-21T13:52:24;0.80;;;0.80;;
50002;SDS011;35889;51.442;6.408;2022-08-21T13:54:53;0.80;;;0.80;;
50002;SDS011;35889;51.442;6.408;2022-08-21T13:57:33;0.80;;;0.80;;
50002;SDS011;35889;51.442;6.408;2022-08-21T14:00:16;0.70;;;0.70;;
50002;SDS011;35889;51.442;6.408;2022-08-21T14:02:45;0.90;;;0.90;;
50002;SDS011;35889;51.442;6.408;2022-08-21T14:05:20;1.00;;;1.00;;
50002;SDS011;35889;51.442;6.408;2022-08-21T14:07:47;0.90;;;0.90;;
50002;SDS011;35889;51.442;6.408;2022-08-21T14:10:17;0.70;;;0.70;;
50002;SDS011;35889;51.442;6.408;2022-08-21T14:15:17;1.20;;;1.20;;
50002;SDS011;35889;51.442;6.408;2022-08-21T14:17:47;1.20;;;1.20;;
50002;SDS011;35889;51.442;6.408;2022-08-21T14:22:57;1.10;;;1.10;;
50002;SDS011;35889;51.442;6.408;2022-08-21T14:27:55;1.20;;;1.20;;
50002;SDS011;35889;51.442;6.408;2022-08-21T14:30:33;1.00;;;1.00;;
50002;SDS011;35889;51.442;6.408;2022-08-21T14:33:01;1.20;;;1.20;;
50002;SDS011;35889;51.442;6.408;2022-08-21T14:35:27;1.20;;;1.20;;
50002;SDS011;35889;51.442;6.408;2022-08-21T14:37:52;1.20;;;1.20;;
50002;SDS011;35889;51.442;6.408;2022-08-21T14:40:19;1.13;;;1.13;;
50002;SDS011;35889;51.442;6.408;2022-08-21T14:42:46;1.20;;;1.20;;
50002;SDS011;35889;51.442;6.408;2022-08-21T14:45:15;1.15;;;1.15;;
50002;SDS011;35889;51.442;6.408;2022-08-21T14:47:42;1.10;;;1.10;;
50002;SDS011;35889;51.442;6.408;2022-08-21T14:50:09;1.20;;;1.20;;
50002;SDS011;35889;51.442;6.408;2022-08-21T14:52:35;1.20;;;1.20;;
50002;SDS011;35889;51.442;6.408;2022-08-21T14:55:02;1.20;;;1.20;;
50002;SDS011;35889;51.442;6.408;2022-08-21T14:57:29;1.20;;;1.20;;
50002;SDS011;35889;51.442;6.408;2022-08-21T14:59:55;1.10;;;1.10;;
50002;SDS011;35889;51.442;6.408;2022-08-21T15:02:20;1.20;;;1.20;;
50002;SDS011;35889;51.442;6.408;2022-08-21T15:04:46;1.20;;;1.20;;
50002;SDS011;35889;51.442;6.408;2022-08-21T15:07:11;1.20;;;1.20;;
50002;SDS011;35889;51.442;6.408;2022-08-21T15:09:37;1.17;;;1.17;;
50002;SDS011;35889;51.442;6.408;2022-08-21T15:12:02;1.13;;;1.13;;
50002;SDS011;35889;51.442;6.408;2022-08-21T15:14:29;1.20;;;1.20;;
50002;SDS011;35889;51.442;6.408;2022-08-21T15:16:56;1.10;;;1.10;;
50002;SDS011;35889;51.442;6.408;2022-08-21T15:19:22;1.20;;;1.20;;
50002;SDS011;35889;51.442;6.408;2022-08-21T15:21:47;1.20;;;1.20;;
50002;SDS011;35889;51.442;6.408;2022-08-21T15:24:13;1.10;;;1.10;;
50002;SDS011;35889;51.442;6.408;2022-08-21T15:26:38;1.10;;;1.10;;
50002;SDS011;35889;51.442;6.408;2022-08-21T15:29:04;1.17;;;1.17;;
50002;SDS011;35889;51.442;6.408;2022-08-21T15:31:31;1.17;;;1.17;;
50002;SDS011;35889;51.442;6.408;2022-08-21T15:33:57;1.08;;;1.08;;
50002;SDS011;35889;51.442;6.408;2022-08-21T15:36:22;1.10;;;1.10;;
50002;SDS011;35889;51.442;6.408;2022-08-21T15:38:48;1.10;;;1.10;;
50002;SDS011;35889;51.442;6.408;2022-08-21T15:41:14;1.10;;;1.10;;
50002;SDS011;35889;51.442;6.408;2022-08-21T15:43:46;0.90;;;0.90;;
50002;SDS011;35889;51.442;6.408;2022-08-21T15:46:14;0.80;;;0.80;;
50002;SDS011;35889;51.442;6.408;2022-08-21T15:48:41;0.80;;;0.80;;
50002;SDS011;35889;51.442;6.408;2022-08-21T15:51:08;0.80;;;0.80;;
50002;SDS011;35889;51.442;6.408;2022-08-21T15:53:35;0.90;;;0.90;;
50002;SDS011;35889;51.442;6.408;2022-08-21T15:56:03;0.85;;;0.85;;
50002;SDS011;35889;51.442;6.408;2022-08-21T15:58:30;0.90;;;0.90;;
50002;SDS011;35889;51.442;6.408;2022-08-21T16:00:57;0.90;;;0.90;;
50002;SDS011;35889;51.442;6.408;2022-08-21T16:03:23;0.90;;;0.90;;
50002;SDS011;35889;51.442;6.408;2022-08-21T16:05:50;0.80;;;0.80;;
50002;SDS011;35889;51.442;6.408;2022-08-21T16:08:18;0.80;;;0.80;;
50002;SDS011;35889;51.442;6.408;2022-08-21T16:10:44;0.70;;;0.70;;
50002;SDS011;35889;51.442;6.408;2022-08-21T16:13:34;0.70;;;0.70;;
50002;SDS011;35889;51.442;6.408;2022-08-21T16:16:00;0.80;;;0.80;;